Time,TemperatureF,DewpointF,PressureIn,WindDirection,WindDirectionDegrees,WindSpeedMPH,WindSpeedGustMPH,Humidity,HourlyPrecipIn,Conditions,Clouds,dailyrainin,SoftwareType,DateUTC
2013-07-25 00:12:00,60.0,57.0,-100.00,SW,230,1.0,2.0,91,0.00,,,-99.99,,2013-07-25 05:12:00,
2013-07-25 00:43:00,58.0,56.0,-100.00,SW,225,4.0,4.0,92,0.00,,,-99.99,,2013-07-25 05:43:00,
2013-07-25 01:32:00,58.0,56.0,-100.00,SW,220,4.0,4.0,92,0.00,,,-99.99,,2013-07-25 06:32:00,
2013-07-25 01:42:00,58.0,56.0,-100.00,SW,230,2.0,4.0,92,0.00,,,-99.99,,2013-07-25 06:42:00,
2013-07-25 01:52:00,58.0,56.0,-100.00,WSW,240,2.0,3.0,92,0.00,,,-99.99,,2013-07-25 06:52:00,
2013-07-25 02:02:00,58.0,56.0,-100.00,SW,235,2.0,3.0,92,0.00,,,-99.99,,2013-07-25 07:02:00,
2013-07-25 02:12:00,58.0,56.0,-100.00,SW,225,4.0,4.0,92,0.00,,,-99.99,,2013-07-25 07:12:00,
2013-07-25 02:22:00,58.0,56.0,-100.00,SW,225,4.0,4.0,92,0.00,,,-99.99,,2013-07-25 07:22:00,
2013-07-25 02:32:00,58.0,56.0,-100.00,SW,230,4.0,5.0,93,0.00,,,-99.99,,2013-07-25 07:32:00,
2013-07-25 02:43:00,58.0,56.0,-100.00,SW,230,4.0,5.0,93,0.00,,,-99.99,,2013-07-25 07:43:00,
2013-07-25 02:53:00,58.0,56.0,-100.00,SW,215,4.0,4.0,93,0.00,,,-99.99,,2013-07-25 07:53:00,
2013-07-25 03:02:00,58.0,56.0,-100.00,SW,215,4.0,5.0,93,0.00,,,-99.99,,2013-07-25 08:02:00,
2013-07-25 03:12:00,59.0,57.0,-100.00,SSW,195,4.0,5.0,93,0.00,,,-99.99,,2013-07-25 08:12:00,
2013-07-25 03:22:00,59.0,57.0,-100.00,SE,135,4.0,6.0,93,0.00,,,-99.99,,2013-07-25 08:22:00,
2013-07-25 03:32:00,59.0,57.0,-100.00,South,190,3.0,4.0,93,0.00,,,-99.99,,2013-07-25 08:32:00,
2013-07-25 03:44:00,59.0,57.0,-100.00,SSW,200,4.0,5.0,93,0.00,,,-99.99,,2013-07-25 08:44:00,
2013-07-25 03:52:00,58.0,56.0,-100.00,SW,220,4.0,6.0,93,0.00,,,-99.99,,2013-07-25 08:52:00,
2013-07-25 04:02:00,58.0,56.0,-100.00,SW,215,2.0,4.0,93,0.00,,,-99.99,,2013-07-25 09:02:00,
2013-07-25 04:12:00,58.0,56.0,-100.00,South,190,3.0,4.0,93,0.00,,,-99.99,,2013-07-25 09:12:00,
2013-07-25 04:22:00,59.0,57.0,-100.00,South,180,2.0,4.0,93,0.00,,,-99.99,,2013-07-25 09:22:00,
2013-07-25 04:33:00,59.0,57.0,-100.00,SSW,195,2.0,2.0,93,0.00,,,-99.99,,2013-07-25 09:33:00,
2013-07-25 04:43:00,59.0,57.0,-100.00,SSW,195,1.0,2.0,93,0.00,,,-99.99,,2013-07-25 09:43:00,
2013-07-25 04:52:00,59.0,57.0,-100.00,South,185,1.0,2.0,93,0.00,,,-99.99,,2013-07-25 09:52:00,
2013-07-25 05:02:00,58.0,56.0,-100.00,SSE,150,1.0,2.0,93,0.00,,,-99.99,,2013-07-25 10:02:00,
2013-07-25 05:12:00,59.0,57.0,-100.00,South,180,2.0,2.0,93,0.00,,,-99.99,,2013-07-25 10:12:00,
2013-07-25 05:22:00,59.0,57.0,-100.00,South,190,3.0,4.0,93,0.00,,,-99.99,,2013-07-25 10:22:00,
2013-07-25 05:32:00,59.0,57.0,-100.00,SSW,200,4.0,4.0,93,0.00,,,-99.99,,2013-07-25 10:32:00,
2013-07-25 05:42:00,59.0,57.0,-100.00,SSW,210,4.0,5.0,93,0.00,,,-99.99,,2013-07-25 10:42:00,
2013-07-25 05:53:00,59.0,57.0,-100.00,SW,235,3.0,4.0,93,0.00,,,-99.99,,2013-07-25 10:53:00,
2013-07-25 06:02:00,59.0,57.0,-100.00,SW,235,4.0,6.0,93,0.00,,,-99.99,,2013-07-25 11:02:00,
2013-07-25 06:12:00,60.0,58.0,-100.00,WSW,240,7.0,8.0,93,0.00,,,-99.99,,2013-07-25 11:12:00,
2013-07-25 06:22:00,61.0,59.0,-100.00,SW,235,9.0,11.0,93,0.00,,,-99.99,,2013-07-25 11:22:00,
2013-07-25 06:32:00,61.0,59.0,-100.00,SW,230,7.0,9.0,93,0.00,,,-99.99,,2013-07-25 11:32:00,
2013-07-25 06:43:00,62.0,60.0,-100.00,SW,225,7.0,10.0,93,0.00,,,-99.99,,2013-07-25 11:43:00,
2013-07-25 06:52:00,63.0,61.0,-100.00,SW,225,9.0,12.0,93,0.00,,,-99.99,,2013-07-25 11:52:00,
2013-07-25 07:12:00,63.0,61.0,-100.00,SW,225,9.0,12.0,93,0.00,,,-99.99,,2013-07-25 12:12:00,
2013-07-25 07:32:00,65.0,63.0,-100.00,SW,225,9.0,12.0,91,0.00,,,-99.99,,2013-07-25 12:32:00,
2013-07-25 07:45:00,67.0,63.0,-100.00,SW,235,7.0,13.0,89,0.00,,,-99.99,,2013-07-25 12:45:00,
2013-07-25 07:53:00,67.0,63.0,-100.00,WSW,240,9.0,11.0,87,0.00,,,-99.99,,2013-07-25 12:53:00,
2013-07-25 08:12:00,69.0,64.0,-100.00,SW,230,9.0,14.0,82,0.00,,,-99.99,,2013-07-25 13:12:00,
2013-07-25 08:42:00,71.0,63.0,-100.00,WSW,240,13.0,19.0,76,0.00,,,-99.99,,2013-07-25 13:42:00,
2013-07-25 08:52:00,73.0,65.0,-100.00,SW,225,9.0,15.0,73,0.00,,,-99.99,,2013-07-25 13:52:00,
2013-07-25 09:12:00,74.0,64.0,-100.00,SW,235,11.0,18.0,70,0.00,,,-99.99,,2013-07-25 14:12:00,
2013-07-25 09:33:00,75.0,64.0,-100.00,SW,225,13.0,20.0,68,0.00,,,-99.99,,2013-07-25 14:33:00,
2013-07-25 09:43:00,77.0,64.0,-100.00,SW,220,14.0,19.0,65,0.00,,,-99.99,,2013-07-25 14:43:00,
2013-07-25 09:53:00,77.0,64.0,-100.00,SW,225,14.0,18.0,64,0.00,,,-99.99,,2013-07-25 14:53:00,
2013-07-25 10:12:00,79.0,65.0,-100.00,SSW,210,11.0,14.0,63,0.00,,,-99.99,,2013-07-25 15:12:00,
2013-07-25 10:32:00,80.0,65.0,-100.00,SSW,210,10.0,16.0,61,0.00,,,-99.99,,2013-07-25 15:32:00,
2013-07-25 10:44:00,79.0,65.0,-100.00,SW,225,12.0,17.0,61,0.00,,,-99.99,,2013-07-25 15:44:00,
2013-07-25 11:12:00,80.0,66.0,-100.00,SSW,205,12.0,17.0,62,0.00,,,-99.99,,2013-07-25 16:12:00,
2013-07-25 11:33:00,80.0,66.0,-100.00,SW,220,12.0,16.0,61,0.00,,,-99.99,,2013-07-25 16:33:00,
2013-07-25 11:45:00,81.0,66.0,-100.00,SW,225,11.0,14.0,60,0.00,,,-99.99,,2013-07-25 16:45:00,
2013-07-25 11:53:00,82.0,66.0,-100.00,South,190,14.0,18.0,58,0.00,,,-99.99,,2013-07-25 16:53:00,
2013-07-25 12:12:00,84.0,66.0,-100.00,SSW,195,10.0,17.0,56,0.00,,,-99.99,,2013-07-25 17:12:00,
2013-07-25 12:32:00,84.0,67.0,-100.00,SSW,200,11.0,17.0,55,0.00,,,-99.99,,2013-07-25 17:32:00,
2013-07-25 12:43:00,85.0,66.0,-100.00,SW,215,11.0,17.0,54,0.00,,,-99.99,,2013-07-25 17:43:00,
2013-07-25 12:53:00,85.0,65.0,-100.00,SSW,205,12.0,17.0,51,0.00,,,-99.99,,2013-07-25 17:53:00,
2013-07-25 13:12:00,85.0,66.0,-100.00,SSW,205,12.0,20.0,53,0.00,,,-99.99,,2013-07-25 18:12:00,
2013-07-25 13:43:00,85.0,66.0,-100.00,SSW,200,12.0,17.0,51,0.00,,,-99.99,,2013-07-25 18:43:00,
2013-07-25 13:52:00,87.0,66.0,-100.00,SSW,200,11.0,19.0,50,0.00,,,-99.99,,2013-07-25 18:52:00,
2013-07-25 14:02:00,87.0,66.0,-100.00,SSW,200,11.0,19.0,50,0.00,,,-99.99,,2013-07-25 19:02:00,
2013-07-25 14:12:00,85.0,65.0,-100.00,SW,220,12.0,17.0,50,0.00,,,-99.99,,2013-07-25 19:12:00,
2013-07-25 14:33:00,84.0,66.0,-100.00,SSW,205,11.0,18.0,53,0.00,,,-99.99,,2013-07-25 19:33:00,
2013-07-25 14:42:00,84.0,65.0,-100.00,SSW,200,11.0,15.0,54,0.00,,,-99.99,,2013-07-25 19:42:00,
2013-07-25 15:32:00,85.0,68.0,-100.00,SSW,205,14.0,17.0,55,0.00,,,-99.99,,2013-07-25 20:32:00,
2013-07-25 15:43:00,85.0,66.0,-100.00,South,190,11.0,18.0,54,0.00,,,-99.99,,2013-07-25 20:43:00,
2013-07-25 15:53:00,87.0,68.0,-100.00,SSW,200,8.0,17.0,53,0.00,,,-99.99,,2013-07-25 20:53:00,
2013-07-25 16:12:00,86.0,67.0,-100.00,SW,220,11.0,17.0,53,0.00,,,-99.99,,2013-07-25 21:12:00,
2013-07-25 16:32:00,84.0,66.0,-100.00,WSW,240,12.0,17.0,54,0.00,,,-99.99,,2013-07-25 21:32:00,
2013-07-25 16:44:00,84.0,67.0,-100.00,SW,225,9.0,14.0,57,0.00,,,-99.99,,2013-07-25 21:44:00,
2013-07-25 16:52:00,83.0,67.0,-100.00,SW,230,12.0,18.0,58,0.00,,,-99.99,,2013-07-25 21:52:00,
2013-07-25 17:12:00,82.0,67.0,-100.00,WSW,240,11.0,19.0,60,0.00,,,-99.99,,2013-07-25 22:12:00,
2013-07-25 17:32:00,83.0,68.0,-100.00,SW,225,16.0,21.0,60,0.00,,,-99.99,,2013-07-25 22:32:00,
2013-07-25 19:12:00,71.0,67.0,-100.00,SW,235,4.0,6.0,88,0.43,,,-99.99,,2013-07-26 00:12:00,
2013-07-25 19:22:00,71.0,67.0,-100.00,SW,235,4.0,6.0,88,0.43,,,-99.99,,2013-07-26 00:22:00,
2013-07-25 19:32:00,71.0,67.0,-100.00,SW,235,4.0,6.0,88,0.43,,,-99.99,,2013-07-26 00:32:00,
2013-07-25 19:43:00,72.0,69.0,-100.00,WSW,255,8.0,9.0,91,0.52,,,-99.99,,2013-07-26 00:43:00,
2013-07-25 19:52:00,69.0,68.0,-100.00,West,260,17.0,35.0,94,0.35,,,-99.99,,2013-07-26 00:52:00,
2013-07-25 20:12:00,68.0,66.0,-100.00,WSW,250,17.0,25.0,94,0.33,,,-99.99,,2013-07-26 01:12:00,
2013-07-25 20:32:00,67.0,65.0,-100.00,West,260,16.0,25.0,94,0.25,,,-99.99,,2013-07-26 01:32:00,
2013-07-25 20:43:00,66.0,64.0,-100.00,WNW,295,10.0,15.0,94,0.00,,,-99.99,,2013-07-26 01:43:00,
2013-07-25 20:52:00,67.0,65.0,-100.00,NNW,330,8.0,14.0,94,0.00,,,-99.99,,2013-07-26 01:52:00,
2013-07-25 21:12:00,67.0,65.0,-100.00,WNW,295,11.0,17.0,94,0.00,,,-99.99,,2013-07-26 02:12:00,
2013-07-25 21:22:00,67.0,65.0,-100.00,WNW,295,11.0,17.0,94,0.00,,,-99.99,,2013-07-26 02:22:00,
2013-07-25 21:32:00,67.0,65.0,-100.00,WNW,295,11.0,17.0,94,0.00,,,-99.99,,2013-07-26 02:32:00,
2013-07-25 21:43:00,67.0,65.0,-100.00,WNW,285,9.0,12.0,94,0.34,,,-99.99,,2013-07-26 02:43:00,
2013-07-25 21:52:00,67.0,65.0,-100.00,NW,325,7.0,15.0,94,0.43,,,-99.99,,2013-07-26 02:52:00,
2013-07-25 22:12:00,67.0,65.0,-100.00,West,270,7.0,9.0,94,0.28,,,-99.99,,2013-07-26 03:12:00,
2013-07-25 22:32:00,67.0,65.0,-100.00,WNW,290,9.0,14.0,94,0.43,,,-99.99,,2013-07-26 03:32:00,
2013-07-25 22:43:00,67.0,66.0,-100.00,West,275,10.0,14.0,94,0.24,,,-99.99,,2013-07-26 03:43:00,
2013-07-25 22:53:00,67.0,65.0,-100.00,West,265,13.0,16.0,94,0.34,,,-99.99,,2013-07-26 03:53:00,
2013-07-25 23:12:00,67.0,66.0,-100.00,West,260,18.0,22.0,94,0.00,,,-99.99,,2013-07-26 04:12:00,
2013-07-25 23:32:00,67.0,66.0,-100.00,WSW,250,17.0,25.0,94,0.28,,,-99.99,,2013-07-26 04:32:00,
2013-07-25 23:42:00,68.0,66.0,-100.00,West,270,18.0,26.0,94,0.30,,,-99.99,,2013-07-26 04:42:00,
2013-07-25 23:53:00,68.0,66.0,-100.00,West,270,18.0,26.0,94,0.30,,,-99.99,,2013-07-26 04:53:00,